createdAt,value
2019-03-31T00:00:35.720Z,29.83
2019-03-31T00:03:03.208Z,29.00
2019-03-31T00:05:30.555Z,28.00
2019-03-31T00:07:58.006Z,30.37
2019-03-31T00:10:25.439Z,29.30
2019-03-31T00:12:52.844Z,30.67
2019-03-31T00:15:20.254Z,31.43
2019-03-31T00:17:48.231Z,30.60
2019-03-31T00:20:15.649Z,31.13
2019-03-31T00:22:43.076Z,30.70
2019-03-31T00:25:10.485Z,31.07
2019-03-31T00:27:37.895Z,30.40
2019-03-31T00:30:05.343Z,29.80
2019-03-31T00:32:32.764Z,30.23
2019-03-31T00:35:00.340Z,29.87
2019-03-31T00:37:27.589Z,29.40
2019-03-31T00:39:55.033Z,30.90
2019-03-31T00:42:22.421Z,30.97
2019-03-31T00:44:49.901Z,31.20
2019-03-31T00:47:17.297Z,28.57
2019-03-31T00:49:44.725Z,30.33
2019-03-31T00:52:12.164Z,29.70
2019-03-31T00:54:39.556Z,30.00
2019-03-31T00:57:06.957Z,31.93
2019-03-31T00:59:34.445Z,31.87
2019-03-31T01:02:01.842Z,31.63
2019-03-31T01:04:29.243Z,30.60
2019-03-31T01:06:56.718Z,32.73
2019-03-31T01:09:24.085Z,31.60
2019-03-31T01:11:51.503Z,31.33
2019-03-31T01:14:18.921Z,33.70
2019-03-31T01:16:46.357Z,32.67
2019-03-31T01:19:13.783Z,32.33
2019-03-31T01:21:41.195Z,33.97
2019-03-31T01:24:08.672Z,33.13
2019-03-31T01:26:36.080Z,32.97
2019-03-31T01:29:03.512Z,34.30
2019-03-31T01:31:30.946Z,37.77
2019-03-31T01:33:58.352Z,39.07
2019-03-31T01:36:25.778Z,35.47
2019-03-31T01:38:53.182Z,37.07
2019-03-31T01:41:20.609Z,36.83
2019-03-31T01:43:48.011Z,37.87
2019-03-31T01:46:15.541Z,38.20
2019-03-31T01:48:42.953Z,36.33
2019-03-31T01:51:10.378Z,36.37
2019-03-31T01:53:37.778Z,37.23
2019-03-31T01:56:05.206Z,40.63
2019-03-31T01:58:32.639Z,40.47
2019-03-31T02:01:00.048Z,42.00
2019-03-31T02:03:27.476Z,42.37
2019-03-31T02:05:54.908Z,44.13
2019-03-31T02:08:22.348Z,44.97
2019-03-31T02:10:49.758Z,43.10
2019-03-31T02:13:17.160Z,44.23
2019-03-31T02:15:44.585Z,44.53
2019-03-31T02:18:11.998Z,44.17
2019-03-31T02:20:39.429Z,46.63
2019-03-31T02:23:06.819Z,48.90
2019-03-31T02:25:34.253Z,46.93
2019-03-31T02:28:01.653Z,48.60
2019-03-31T02:30:29.077Z,49.80
2019-03-31T02:32:56.485Z,50.47
2019-03-31T02:35:23.917Z,51.17
2019-03-31T02:37:51.322Z,51.27
2019-03-31T02:40:18.742Z,50.83
2019-03-31T02:42:46.179Z,51.23
2019-03-31T02:45:13.613Z,50.80
2019-03-31T02:47:41.005Z,52.23
2019-03-31T02:50:08.423Z,51.30
2019-03-31T02:52:35.847Z,52.10
2019-03-31T02:55:03.258Z,51.87
2019-03-31T02:57:30.676Z,50.83
2019-03-31T02:59:58.076Z,49.57
2019-03-31T03:02:40.581Z,47.73
2019-03-31T03:04:52.940Z,49.40
2019-03-31T03:07:20.384Z,54.27
2019-03-31T03:09:47.757Z,50.30
2019-03-31T03:12:15.176Z,49.93
2019-03-31T03:14:42.611Z,50.53
2019-03-31T03:17:10.017Z,50.23
2019-03-31T03:19:37.434Z,55.10
2019-03-31T03:22:04.829Z,57.17
2019-03-31T03:24:32.245Z,54.27
2019-03-31T03:26:59.708Z,55.43
2019-03-31T03:29:27.131Z,55.13
2019-03-31T03:31:54.537Z,57.97
2019-03-31T03:34:21.981Z,57.70
2019-03-31T03:36:49.372Z,58.10
2019-03-31T03:39:16.795Z,57.37
2019-03-31T03:41:44.220Z,59.70
2019-03-31T03:44:11.609Z,61.07
2019-03-31T03:46:39.025Z,57.73
2019-03-31T03:49:06.488Z,58.37
2019-03-31T03:51:33.875Z,58.33
2019-03-31T03:54:01.286Z,57.03
2019-03-31T03:56:29.637Z,57.77
2019-03-31T03:58:57.050Z,58.53
2019-03-31T04:01:24.446Z,60.17
2019-03-31T04:03:51.878Z,62.97
2019-03-31T04:06:19.294Z,59.00
2019-03-31T04:08:46.725Z,59.57
2019-03-31T04:11:14.174Z,58.90
2019-03-31T04:13:41.577Z,58.67
2019-03-31T04:16:08.991Z,59.63
2019-03-31T04:18:36.421Z,62.57
2019-03-31T04:21:03.831Z,58.50
2019-03-31T04:23:31.266Z,59.30
2019-03-31T04:25:58.681Z,57.83
2019-03-31T04:28:26.118Z,59.37
2019-03-31T04:30:53.540Z,59.70
2019-03-31T04:33:20.944Z,59.43
2019-03-31T04:35:48.398Z,60.77
2019-03-31T04:38:15.905Z,59.87
2019-03-31T04:40:43.224Z,57.20
2019-03-31T04:43:10.617Z,60.87
2019-03-31T04:45:38.032Z,61.73
2019-03-31T04:48:05.450Z,59.93
2019-03-31T04:50:32.865Z,58.97
2019-03-31T04:53:00.281Z,60.23
2019-03-31T04:55:27.728Z,55.97
2019-03-31T04:57:55.128Z,58.20
2019-03-31T05:00:22.548Z,58.67
2019-03-31T05:02:49.945Z,58.77
2019-03-31T05:05:17.374Z,58.43
2019-03-31T05:07:44.775Z,60.33
2019-03-31T05:10:12.211Z,57.13
2019-03-31T05:12:39.627Z,58.73
2019-03-31T05:15:07.057Z,59.00
2019-03-31T05:17:35.921Z,59.37
2019-03-31T05:20:01.909Z,58.97
2019-03-31T05:22:29.304Z,58.93
2019-03-31T05:24:56.787Z,57.57
2019-03-31T05:27:24.185Z,57.50
2019-03-31T05:29:51.614Z,57.73
2019-03-31T05:32:19.014Z,56.80
2019-03-31T05:34:46.445Z,54.87
2019-03-31T05:37:13.849Z,54.20
2019-03-31T05:39:41.249Z,59.10
2019-03-31T05:42:08.691Z,56.20
2019-03-31T05:44:36.097Z,57.20
2019-03-31T05:47:03.495Z,56.07
2019-03-31T05:49:30.927Z,54.67
2019-03-31T05:51:58.335Z,55.97
2019-03-31T05:54:25.770Z,54.23
2019-03-31T05:56:53.204Z,55.23
2019-03-31T05:59:20.628Z,57.37
2019-03-31T06:01:48.068Z,54.50
2019-03-31T06:04:15.478Z,51.63
2019-03-31T06:06:42.893Z,52.83
2019-03-31T06:09:10.314Z,53.83
2019-03-31T06:11:37.731Z,53.80
2019-03-31T06:14:05.158Z,53.80
2019-03-31T06:16:32.571Z,52.03
2019-03-31T06:19:19.876Z,51.13
2019-03-31T06:21:47.286Z,50.43
2019-03-31T06:24:14.724Z,50.33
2019-03-31T06:26:42.129Z,50.93
2019-03-31T06:29:09.568Z,49.90
2019-03-31T06:31:36.975Z,51.70
2019-03-31T06:34:04.406Z,53.93
2019-03-31T06:36:31.807Z,49.23
2019-03-31T06:38:59.242Z,50.27
2019-03-31T06:41:27.047Z,49.63
2019-03-31T06:43:54.480Z,49.57
2019-03-31T06:46:21.915Z,50.47
2019-03-31T06:48:49.323Z,50.37
2019-03-31T06:51:17.247Z,52.00
2019-03-31T06:53:44.190Z,49.00
2019-03-31T06:56:11.600Z,49.67
2019-03-31T06:58:39.030Z,48.93
2019-03-31T07:01:06.442Z,49.33
2019-03-31T07:03:33.892Z,50.87
2019-03-31T07:06:01.299Z,49.07
2019-03-31T07:08:28.736Z,50.63
2019-03-31T07:10:56.135Z,49.57
2019-03-31T07:13:23.585Z,51.67
2019-03-31T07:15:51.014Z,50.00
2019-03-31T07:18:18.418Z,52.03
2019-03-31T07:20:45.861Z,51.13
2019-03-31T07:23:13.273Z,50.00
2019-03-31T07:25:40.715Z,52.93
2019-03-31T07:28:08.123Z,56.83
2019-03-31T07:30:35.553Z,59.57
2019-03-31T07:33:02.974Z,54.13
2019-03-31T07:35:30.404Z,56.97
2019-03-31T07:37:57.814Z,55.73
2019-03-31T07:40:25.598Z,55.20
2019-03-31T07:42:52.657Z,56.30
2019-03-31T07:45:20.073Z,58.03
2019-03-31T07:47:47.512Z,57.00
2019-03-31T07:50:14.922Z,58.63
2019-03-31T07:52:42.360Z,59.33
2019-03-31T07:55:09.774Z,58.70
2019-03-31T07:57:37.242Z,58.67
2019-03-31T08:00:04.672Z,57.73
2019-03-31T08:02:32.061Z,56.87
2019-03-31T08:04:59.481Z,57.20
2019-03-31T08:07:26.903Z,57.13
2019-03-31T08:09:54.315Z,59.13
2019-03-31T08:12:21.764Z,56.13
2019-03-31T08:14:49.189Z,58.40
2019-03-31T08:17:16.604Z,55.83
2019-03-31T08:19:44.068Z,58.57
2019-03-31T08:22:11.472Z,57.87
2019-03-31T08:24:45.088Z,54.03
2019-03-31T08:27:15.474Z,57.40
2019-03-31T08:29:42.877Z,52.30
2019-03-31T08:32:10.309Z,53.03
2019-03-31T08:34:37.720Z,50.60
2019-03-31T08:37:05.133Z,48.97
2019-03-31T08:39:32.553Z,50.83
2019-03-31T08:41:59.972Z,50.57
2019-03-31T08:44:27.379Z,50.90
2019-03-31T08:46:54.815Z,49.50
2019-03-31T08:49:22.242Z,47.63
2019-03-31T08:51:49.674Z,46.03
2019-03-31T08:54:17.096Z,48.60
2019-03-31T08:56:44.496Z,46.43
2019-03-31T08:59:11.912Z,46.57
2019-03-31T09:01:39.322Z,43.23
2019-03-31T09:04:06.782Z,43.60
2019-03-31T09:06:34.187Z,41.70
2019-03-31T09:09:01.604Z,43.73
2019-03-31T09:11:29.045Z,41.53
2019-03-31T09:13:56.447Z,42.17
2019-03-31T09:16:23.883Z,40.63
2019-03-31T09:18:51.296Z,39.07
2019-03-31T09:21:18.697Z,39.07
2019-03-31T09:23:46.122Z,38.47
2019-03-31T09:26:13.533Z,39.33
2019-03-31T09:28:40.965Z,39.20
2019-03-31T09:31:08.357Z,37.87
2019-03-31T09:33:39.220Z,37.60
2019-03-31T09:36:15.611Z,37.03
2019-03-31T09:38:30.651Z,36.43
2019-03-31T09:40:58.080Z,34.17
2019-03-31T09:43:25.469Z,36.20
2019-03-31T09:45:52.910Z,35.40
2019-03-31T09:48:20.339Z,34.60
2019-03-31T09:50:47.785Z,33.67
2019-03-31T09:53:15.205Z,33.23
2019-03-31T09:55:42.631Z,35.23
2019-03-31T09:58:10.067Z,34.63
2019-03-31T10:00:43.275Z,34.00
2019-03-31T10:03:10.735Z,34.97
2019-03-31T10:05:38.122Z,35.00
2019-03-31T10:08:05.533Z,35.27
2019-03-31T10:10:32.960Z,34.17
2019-03-31T10:13:00.380Z,33.50
2019-03-31T10:15:27.834Z,33.67
2019-03-31T10:17:55.235Z,34.83
2019-03-31T10:20:22.653Z,34.73
2019-03-31T10:22:50.114Z,34.17
2019-03-31T10:25:17.512Z,31.83
2019-03-31T10:27:44.957Z,36.50
2019-03-31T10:30:12.372Z,33.03
2019-03-31T10:32:39.802Z,33.20
2019-03-31T10:35:07.212Z,34.50
2019-03-31T10:37:34.609Z,30.93
2019-03-31T10:40:02.044Z,32.63
2019-03-31T10:42:29.444Z,30.10
2019-03-31T10:44:56.880Z,29.23
2019-03-31T10:47:24.295Z,29.23
2019-03-31T10:49:51.726Z,29.17
2019-03-31T10:52:19.123Z,28.07
2019-03-31T10:54:46.552Z,28.77
2019-03-31T10:57:13.967Z,29.47
2019-03-31T10:59:41.391Z,27.80
2019-03-31T11:02:08.811Z,28.03
2019-03-31T11:04:36.247Z,29.00
2019-03-31T11:07:03.789Z,28.93
2019-03-31T11:09:34.234Z,27.13
2019-03-31T11:11:58.500Z,27.27
2019-03-31T11:14:25.930Z,27.77
2019-03-31T11:16:53.377Z,27.37
2019-03-31T11:19:20.782Z,26.13
2019-03-31T11:21:54.004Z,27.07
2019-03-31T11:24:21.409Z,27.43
2019-03-31T11:26:48.837Z,27.20
2019-03-31T11:29:16.269Z,27.77
2019-03-31T11:31:43.705Z,26.90
2019-03-31T11:34:11.149Z,26.87
2019-03-31T11:36:38.553Z,28.43
2019-03-31T11:39:05.992Z,27.17
2019-03-31T11:41:33.383Z,28.03
2019-03-31T11:44:00.814Z,25.07
2019-03-31T11:46:28.205Z,27.87
2019-03-31T11:48:55.637Z,26.40
2019-03-31T11:51:23.061Z,24.67
2019-03-31T11:53:50.456Z,26.37
2019-03-31T11:56:17.893Z,27.20
2019-03-31T11:58:45.334Z,26.77
2019-03-31T12:01:12.750Z,26.97
2019-03-31T12:03:40.162Z,25.70
2019-03-31T12:06:11.054Z,25.83
2019-03-31T12:08:34.988Z,27.50
2019-03-31T12:11:02.401Z,27.77
2019-03-31T12:13:29.815Z,27.07
2019-03-31T12:15:57.256Z,27.17
2019-03-31T12:18:24.678Z,27.27
2019-03-31T12:20:52.115Z,26.27
2019-03-31T12:23:19.540Z,26.07
2019-03-31T12:25:46.962Z,24.83
2019-03-31T12:28:14.406Z,25.27
2019-03-31T12:30:42.145Z,22.93
2019-03-31T12:33:09.580Z,23.07
2019-03-31T12:35:36.986Z,24.23
2019-03-31T12:38:04.419Z,24.47
2019-03-31T12:40:34.483Z,23.23
2019-03-31T12:43:01.910Z,23.37
2019-03-31T12:45:29.320Z,23.23
2019-03-31T12:47:56.781Z,24.10
2019-03-31T12:50:24.191Z,24.07
2019-03-31T12:52:51.645Z,23.70
2019-03-31T12:55:19.044Z,23.53
2019-03-31T12:57:46.455Z,24.07
2019-03-31T13:00:13.888Z,21.77
2019-03-31T13:02:41.295Z,22.27
2019-03-31T13:05:08.716Z,22.17
2019-03-31T13:07:36.128Z,21.40
2019-03-31T13:10:03.557Z,22.13
2019-03-31T13:12:30.962Z,22.00
2019-03-31T13:14:58.395Z,22.00
2019-03-31T13:17:25.821Z,21.57
2019-03-31T13:19:53.337Z,21.87
2019-03-31T13:22:20.664Z,22.33
2019-03-31T13:24:48.080Z,19.87
2019-03-31T13:27:15.506Z,20.17
2019-03-31T13:29:42.905Z,19.87
2019-03-31T13:32:10.328Z,18.77
2019-03-31T13:34:37.747Z,20.70
2019-03-31T13:37:24.776Z,19.67
2019-03-31T13:39:52.226Z,19.73
2019-03-31T13:42:19.629Z,18.70
2019-03-31T13:44:47.043Z,18.00
2019-03-31T13:47:14.454Z,18.47
2019-03-31T13:49:41.887Z,18.63
2019-03-31T13:52:09.302Z,19.60
2019-03-31T13:54:36.745Z,17.80
2019-03-31T13:57:04.163Z,17.83
2019-03-31T13:59:31.582Z,17.53
2019-03-31T14:02:00.376Z,17.27
2019-03-31T14:04:26.432Z,16.53
2019-03-31T14:06:53.829Z,18.07
2019-03-31T14:09:21.232Z,17.37
2019-03-31T14:11:48.763Z,16.50
2019-03-31T14:14:16.053Z,18.50
2019-03-31T14:16:43.495Z,18.60
2019-03-31T14:19:13.022Z,17.17
2019-03-31T14:21:40.080Z,18.37
2019-03-31T14:24:05.826Z,17.40
2019-03-31T14:26:33.252Z,17.70
2019-03-31T14:29:00.686Z,18.73
2019-03-31T14:31:28.091Z,16.53
2019-03-31T14:33:55.508Z,17.03
2019-03-31T14:36:22.933Z,16.77
2019-03-31T14:38:50.341Z,17.23
2019-03-31T14:41:17.766Z,16.93
2019-03-31T14:43:45.226Z,16.90
2019-03-31T14:46:12.637Z,18.37
2019-03-31T14:48:40.042Z,19.10
2019-03-31T14:51:07.477Z,16.80
2019-03-31T14:53:34.898Z,17.97
2019-03-31T14:56:02.330Z,17.40
2019-03-31T14:58:29.746Z,18.33
2019-03-31T15:00:57.177Z,18.03
2019-03-31T15:03:24.585Z,18.60
2019-03-31T15:05:51.997Z,18.20
2019-03-31T15:08:19.444Z,18.23
2019-03-31T15:10:46.856Z,17.97
2019-03-31T15:13:14.282Z,17.23
2019-03-31T15:15:41.717Z,17.10
2019-03-31T15:18:09.147Z,17.33
2019-03-31T15:20:36.547Z,17.80
2019-03-31T15:23:04.016Z,17.70
2019-03-31T15:25:31.419Z,16.70
2019-03-31T15:27:58.827Z,16.53
2019-03-31T15:30:26.263Z,16.43
2019-03-31T15:32:53.685Z,19.47
2019-03-31T15:35:21.111Z,16.43
2019-03-31T15:37:48.538Z,16.60
2019-03-31T15:40:15.970Z,17.77
2019-03-31T15:42:43.380Z,16.47
2019-03-31T15:45:10.812Z,14.63
2019-03-31T15:47:38.220Z,14.97
2019-03-31T15:50:05.624Z,14.70
2019-03-31T15:52:33.054Z,15.73
2019-03-31T15:55:00.481Z,15.47
2019-03-31T15:57:27.901Z,14.40
2019-03-31T15:59:55.335Z,13.50
2019-03-31T16:02:22.743Z,14.27
2019-03-31T16:04:50.186Z,14.30
2019-03-31T16:07:17.611Z,14.07
2019-03-31T16:09:45.029Z,13.13
2019-03-31T16:12:12.462Z,11.77
2019-03-31T16:14:39.868Z,12.03
2019-03-31T16:17:07.315Z,12.47
2019-03-31T16:19:34.716Z,11.67
2019-03-31T16:22:02.139Z,11.57
2019-03-31T16:24:32.121Z,11.33
2019-03-31T16:26:59.521Z,10.37
2019-03-31T16:29:26.948Z,11.70
2019-03-31T16:31:54.386Z,10.77
2019-03-31T16:34:21.796Z,11.20
2019-03-31T16:36:49.235Z,9.70
2019-03-31T16:39:16.663Z,10.83
2019-03-31T16:41:44.073Z,11.40
2019-03-31T16:44:11.498Z,10.70
2019-03-31T16:46:40.026Z,10.13
2019-03-31T16:49:06.413Z,9.87
2019-03-31T16:51:33.774Z,10.43
2019-03-31T16:54:01.187Z,10.40
2019-03-31T16:56:28.592Z,10.73
2019-03-31T16:58:56.009Z,9.43
2019-03-31T17:01:23.442Z,10.00
2019-03-31T17:03:50.841Z,8.77
2019-03-31T17:06:18.265Z,9.00
2019-03-31T17:08:45.660Z,9.67
2019-03-31T17:11:13.099Z,10.03
2019-03-31T17:13:40.519Z,9.23
2019-03-31T17:16:07.942Z,9.00
2019-03-31T17:18:35.414Z,9.43
2019-03-31T17:21:02.815Z,9.33
2019-03-31T17:23:30.225Z,8.73
2019-03-31T17:25:57.666Z,9.00
2019-03-31T17:28:25.132Z,9.60
2019-03-31T17:30:52.517Z,10.33
2019-03-31T17:33:19.946Z,8.23
2019-03-31T17:35:47.392Z,8.63
2019-03-31T17:38:14.824Z,8.53
2019-03-31T17:40:42.258Z,8.57
2019-03-31T17:43:09.655Z,8.30
2019-03-31T17:45:37.133Z,9.27
2019-03-31T17:48:04.545Z,10.50
2019-03-31T17:50:32.031Z,8.83
2019-03-31T17:52:59.396Z,8.47
2019-03-31T17:55:26.820Z,8.43
2019-03-31T17:57:54.286Z,8.03
2019-03-31T18:00:21.706Z,8.07
2019-03-31T18:02:49.116Z,7.57
2019-03-31T18:05:16.552Z,8.20
2019-03-31T18:07:43.970Z,8.07
2019-03-31T18:10:20.639Z,7.60
2019-03-31T18:12:38.952Z,7.70
2019-03-31T18:15:06.360Z,7.63
2019-03-31T18:17:33.795Z,7.67
2019-03-31T18:20:01.215Z,7.50
2019-03-31T18:22:28.651Z,7.00
2019-03-31T18:24:56.137Z,6.80
2019-03-31T18:27:23.494Z,7.50
2019-03-31T18:29:50.896Z,7.27
2019-03-31T18:32:18.594Z,7.13
2019-03-31T18:34:46.025Z,7.07
2019-03-31T18:37:13.446Z,6.83
2019-03-31T18:39:40.920Z,7.07
2019-03-31T18:42:08.450Z,7.70
2019-03-31T18:44:35.859Z,7.10
2019-03-31T18:47:03.278Z,7.97
2019-03-31T18:49:30.697Z,7.53
2019-03-31T18:51:58.164Z,7.43
2019-03-31T18:54:28.614Z,7.00
2019-03-31T18:56:56.015Z,6.63
2019-03-31T18:59:38.792Z,6.87
2019-03-31T19:02:08.855Z,7.27
2019-03-31T19:04:54.597Z,7.27
2019-03-31T19:07:24.828Z,6.23
2019-03-31T19:10:23.683Z,6.33
2019-03-31T19:12:46.841Z,6.30
2019-03-31T19:15:29.630Z,5.87
2019-03-31T19:18:15.511Z,6.63
2019-03-31T19:21:10.560Z,6.77
2019-03-31T19:23:25.527Z,7.13
2019-03-31T19:25:52.967Z,7.07
2019-03-31T19:28:25.919Z,7.63
2019-03-31T19:31:11.633Z,7.53
2019-03-31T19:33:45.108Z,7.30
2019-03-31T19:36:30.560Z,7.00
2019-03-31T19:39:06.966Z,7.30
2019-03-31T19:41:34.449Z,7.30
2019-03-31T19:44:12.245Z,8.13
2019-03-31T19:46:47.201Z,8.07
2019-03-31T19:49:20.716Z,8.83
2019-03-31T19:51:53.812Z,9.37
2019-03-31T19:54:21.267Z,8.80
2019-03-31T19:57:00.469Z,8.50
2019-03-31T19:59:27.868Z,8.80
2019-03-31T20:01:55.299Z,8.73
2019-03-31T20:04:22.734Z,8.23
2019-03-31T20:07:08.291Z,8.70
2019-03-31T20:09:44.893Z,8.40
2019-03-31T20:12:14.942Z,8.73
2019-03-31T20:14:51.170Z,7.80
2019-03-31T20:17:18.673Z,8.27
2019-03-31T20:20:04.482Z,8.40
2019-03-31T20:22:34.411Z,8.13
2019-03-31T20:25:07.325Z,8.77
2019-03-31T20:27:46.503Z,8.90
2019-03-31T20:30:13.900Z,8.47
2019-03-31T20:32:44.229Z,9.73
2019-03-31T20:35:14.716Z,8.03
2019-03-31T20:38:00.845Z,8.40
2019-03-31T20:40:28.231Z,8.37
2019-03-31T20:43:07.661Z,8.37
2019-03-31T20:45:35.073Z,8.43
2019-03-31T20:48:02.591Z,9.30
2019-03-31T20:50:30.025Z,8.40
2019-03-31T20:52:57.465Z,9.43
2019-03-31T20:55:24.899Z,8.27
2019-03-31T20:57:52.302Z,8.60
2019-03-31T21:00:19.766Z,8.77
2019-03-31T21:02:47.213Z,9.43
2019-03-31T21:05:14.624Z,8.70
2019-03-31T21:07:42.020Z,9.23
2019-03-31T21:10:09.480Z,9.10
2019-03-31T21:12:36.907Z,8.07
2019-03-31T21:15:04.318Z,9.47
2019-03-31T21:17:31.769Z,9.70
2019-03-31T21:19:59.201Z,9.47
2019-03-31T21:22:26.689Z,9.37
2019-03-31T21:24:54.141Z,9.13
2019-03-31T21:27:21.567Z,9.87
2019-03-31T21:29:48.989Z,9.67
2019-03-31T21:32:16.427Z,9.10
2019-03-31T21:34:43.864Z,9.20
2019-03-31T21:37:11.310Z,9.23
2019-03-31T21:39:38.712Z,9.20
2019-03-31T21:42:06.130Z,8.53
2019-03-31T21:44:33.562Z,8.57
2019-03-31T21:47:00.996Z,9.00
2019-03-31T21:49:28.393Z,8.50
2019-03-31T21:51:55.823Z,8.63
2019-03-31T21:54:23.229Z,8.77
2019-03-31T21:56:50.653Z,9.67
2019-03-31T21:59:18.057Z,9.33
2019-03-31T22:01:45.466Z,8.53
2019-03-31T22:04:12.882Z,8.17
2019-03-31T22:06:40.286Z,8.70
2019-03-31T22:09:07.749Z,7.90
2019-03-31T22:11:35.142Z,8.77
2019-03-31T22:14:02.574Z,8.93
2019-03-31T22:16:29.958Z,9.10
2019-03-31T22:18:57.386Z,8.23
2019-03-31T22:21:24.840Z,8.63
2019-03-31T22:23:58.064Z,8.67
2019-03-31T22:26:20.108Z,8.90
2019-03-31T22:28:47.143Z,8.10
2019-03-31T22:31:14.475Z,8.60
2019-03-31T22:33:42.195Z,8.30
2019-03-31T22:36:21.904Z,8.20
2019-03-31T22:38:49.332Z,7.97
2019-03-31T22:41:16.744Z,8.10
2019-03-31T22:43:44.177Z,7.70
2019-03-31T22:46:11.592Z,7.40
2019-03-31T22:48:39.044Z,7.60
2019-03-31T22:51:06.490Z,7.57
2019-03-31T22:53:33.854Z,8.40
2019-03-31T22:56:01.294Z,7.03
2019-03-31T22:58:28.723Z,7.83
2019-03-31T23:00:56.147Z,7.33
2019-03-31T23:03:23.579Z,7.50
2019-03-31T23:05:50.982Z,6.20
2019-03-31T23:08:18.393Z,7.27
2019-03-31T23:10:45.813Z,6.10
2019-03-31T23:13:13.223Z,6.50
2019-03-31T23:15:40.651Z,6.80
2019-03-31T23:18:08.061Z,6.50
2019-03-31T23:20:35.495Z,6.67
2019-03-31T23:23:02.913Z,6.20
2019-03-31T23:25:30.325Z,7.03
2019-03-31T23:27:57.757Z,6.23
2019-03-31T23:30:25.186Z,6.07
2019-03-31T23:32:52.613Z,5.90
2019-03-31T23:35:20.005Z,6.13
2019-03-31T23:37:47.428Z,5.43
2019-03-31T23:40:14.851Z,5.20
2019-03-31T23:42:42.272Z,5.93
2019-03-31T23:45:09.697Z,5.23
2019-03-31T23:47:37.103Z,6.03
2019-03-31T23:50:04.529Z,5.90
2019-03-31T23:52:31.945Z,5.83
2019-03-31T23:54:59.360Z,5.67
2019-03-31T23:57:35.753Z,5.17
